createdAt,value
2018-12-22T00:00:07.815Z,100.20
2018-12-22T00:02:36.292Z,90.97
2018-12-22T00:05:04.783Z,82.70
2018-12-22T00:07:33.266Z,90.80
2018-12-22T00:10:01.799Z,86.17
2018-12-22T00:12:30.222Z,76.40
2018-12-22T00:14:59.119Z,77.37
2018-12-22T00:17:27.541Z,75.97
2018-12-22T00:19:55.971Z,78.30
2018-12-22T00:22:24.451Z,77.77
2018-12-22T00:24:53.124Z,82.13
2018-12-22T00:27:21.647Z,85.70
2018-12-22T00:29:50.337Z,86.47
2018-12-22T00:32:18.836Z,76.00
2018-12-22T00:34:51.796Z,69.00
2018-12-22T00:37:20.317Z,75.10
2018-12-22T00:39:48.748Z,73.30
2018-12-22T00:42:17.233Z,79.73
2018-12-22T00:44:45.648Z,69.40
2018-12-22T00:47:14.087Z,64.87
2018-12-22T00:49:42.631Z,63.77
2018-12-22T00:52:11.128Z,72.97
2018-12-22T00:54:39.550Z,69.30
2018-12-22T00:57:08.397Z,71.27
2018-12-22T00:59:36.799Z,76.27
2018-12-22T01:02:05.267Z,66.80
2018-12-22T01:04:33.709Z,67.17
2018-12-22T01:07:02.134Z,83.90
2018-12-22T01:09:30.678Z,63.77
2018-12-22T01:11:59.277Z,61.17
2018-12-22T01:14:27.759Z,150.67
2018-12-22T01:16:56.171Z,92.20
2018-12-22T01:19:24.629Z,89.53
2018-12-22T01:21:53.219Z,95.37
2018-12-22T01:24:21.623Z,160.37
2018-12-22T01:26:50.213Z,79.83
2018-12-22T01:29:18.641Z,81.73
2018-12-22T01:31:47.054Z,85.97
2018-12-22T01:34:15.535Z,72.20
2018-12-22T01:36:43.972Z,65.77
2018-12-22T01:39:12.474Z,58.20
2018-12-22T01:41:40.952Z,59.80
2018-12-22T01:44:09.384Z,84.13
2018-12-22T01:46:37.786Z,71.93
2018-12-22T01:49:06.283Z,67.53
2018-12-22T01:51:34.728Z,63.23
2018-12-22T01:54:03.168Z,78.40
2018-12-22T01:56:31.651Z,87.23
2018-12-22T01:59:00.089Z,74.47
2018-12-22T02:01:28.652Z,61.03
2018-12-22T02:03:57.116Z,61.17
2018-12-22T02:06:25.533Z,65.53
2018-12-22T02:08:54.035Z,70.43
2018-12-22T02:11:22.609Z,81.73
2018-12-22T02:13:51.047Z,73.77
2018-12-22T02:16:19.466Z,83.63
2018-12-22T02:18:47.975Z,76.30
2018-12-22T02:21:16.412Z,76.67
2018-12-22T02:23:44.916Z,67.90
2018-12-22T02:26:13.389Z,71.93
2018-12-22T02:28:41.805Z,72.63
2018-12-22T02:31:10.241Z,67.70
2018-12-22T02:33:38.854Z,75.10
2018-12-22T02:36:07.269Z,71.73
2018-12-22T02:38:35.847Z,71.20
2018-12-22T02:41:04.491Z,69.60
2018-12-22T02:43:32.943Z,66.03
2018-12-22T02:46:01.371Z,79.47
2018-12-22T02:48:29.859Z,74.27
2018-12-22T02:50:58.286Z,75.50
2018-12-22T02:53:26.755Z,77.40
2018-12-22T02:55:55.249Z,75.20
2018-12-22T02:58:23.694Z,70.83
2018-12-22T03:00:52.123Z,79.77
2018-12-22T03:03:20.592Z,74.60
2018-12-22T03:05:49.054Z,77.30
2018-12-22T03:08:17.503Z,85.03
2018-12-22T03:10:45.992Z,73.33
2018-12-22T03:13:14.455Z,78.30
2018-12-22T03:15:42.863Z,77.47
2018-12-22T03:18:11.343Z,74.33
2018-12-22T03:20:39.775Z,80.07
2018-12-22T03:23:08.201Z,88.33
2018-12-22T03:25:36.714Z,87.30
2018-12-22T03:28:05.165Z,80.23
2018-12-22T03:30:33.592Z,99.43
2018-12-22T03:33:02.293Z,87.87
2018-12-22T03:35:30.905Z,82.43
2018-12-22T03:37:59.423Z,77.67
2018-12-22T03:40:27.881Z,106.70
2018-12-22T03:42:56.330Z,234.87
2018-12-22T03:45:24.767Z,194.87
2018-12-22T03:47:53.273Z,152.77
2018-12-22T03:50:22.118Z,106.97
2018-12-22T03:52:50.547Z,105.17
2018-12-22T03:55:19.031Z,110.50
2018-12-22T03:57:47.482Z,92.13
2018-12-22T04:00:15.898Z,87.20
2018-12-22T04:02:44.379Z,88.13
2018-12-22T04:05:12.814Z,89.47
2018-12-22T04:07:41.248Z,88.70
2018-12-22T04:10:09.846Z,85.20
2018-12-22T04:12:38.279Z,85.17
2018-12-22T04:15:06.771Z,90.63
2018-12-22T04:17:35.393Z,84.80
2018-12-22T04:20:04.678Z,93.20
2018-12-22T04:22:33.095Z,112.77
2018-12-22T04:25:01.562Z,369.97
2018-12-22T04:27:29.991Z,265.33
2018-12-22T04:29:58.413Z,205.30
2018-12-22T04:32:26.947Z,126.33
2018-12-22T04:34:55.377Z,103.67
2018-12-22T04:37:23.825Z,98.37
2018-12-22T04:39:52.294Z,79.53
2018-12-22T04:42:20.720Z,64.37
2018-12-22T04:44:49.154Z,63.23
2018-12-22T04:47:17.748Z,68.30
2018-12-22T04:49:46.143Z,59.53
2018-12-22T04:52:14.535Z,55.63
2018-12-22T04:54:43.020Z,65.23
2018-12-22T04:57:11.568Z,64.07
2018-12-22T04:59:43.194Z,65.80
2018-12-22T05:02:11.011Z,65.07
2018-12-22T05:04:39.508Z,65.93
2018-12-22T05:07:07.920Z,65.50
2018-12-22T05:09:36.387Z,69.70
2018-12-22T05:12:04.861Z,69.77
2018-12-22T05:14:33.299Z,67.07
2018-12-22T05:17:01.754Z,64.80
2018-12-22T05:19:30.189Z,67.77
2018-12-22T05:21:58.634Z,66.80
2018-12-22T05:24:27.125Z,64.37
2018-12-22T05:26:55.539Z,68.17
2018-12-22T05:29:23.947Z,67.27
2018-12-22T05:31:52.393Z,63.07
2018-12-22T05:34:20.848Z,59.87
2018-12-22T05:36:49.285Z,64.43
2018-12-22T05:39:17.787Z,61.60
2018-12-22T05:41:46.194Z,65.10
2018-12-22T05:44:14.648Z,57.33
2018-12-22T05:46:43.130Z,53.80
2018-12-22T05:49:11.554Z,68.90
2018-12-22T05:51:39.967Z,65.20
2018-12-22T05:54:08.436Z,65.17
2018-12-22T05:56:36.941Z,71.10
2018-12-22T05:59:05.420Z,75.53
2018-12-22T06:01:33.915Z,74.57
2018-12-22T06:04:02.304Z,78.83
2018-12-22T06:06:30.862Z,92.80
2018-12-22T06:08:59.339Z,88.97
2018-12-22T06:11:27.783Z,79.67
2018-12-22T06:13:56.181Z,83.87
2018-12-22T06:16:24.648Z,85.63
2018-12-22T06:18:53.058Z,77.67
2018-12-22T06:21:21.471Z,63.83
2018-12-22T06:23:50.096Z,57.63
2018-12-22T06:26:18.504Z,47.77
2018-12-22T06:28:46.931Z,39.27
2018-12-22T06:31:15.394Z,24.10
2018-12-22T06:33:43.817Z,22.90
2018-12-22T06:36:12.314Z,23.40
2018-12-22T06:38:40.769Z,25.53
2018-12-22T06:41:09.202Z,26.20
2018-12-22T06:43:37.746Z,26.57
2018-12-22T06:46:06.321Z,26.00
2018-12-22T06:48:34.699Z,24.20
2018-12-22T06:51:03.126Z,24.70
2018-12-22T06:53:31.771Z,26.63
2018-12-22T06:56:00.178Z,24.47
2018-12-22T06:58:28.618Z,26.93
2018-12-22T07:00:57.168Z,26.97
2018-12-22T07:03:25.626Z,27.07
2018-12-22T07:05:54.059Z,22.30
2018-12-22T07:08:22.562Z,23.33
2018-12-22T07:10:51.132Z,22.87
2018-12-22T07:13:19.556Z,21.53
2018-12-22T07:15:48.049Z,22.83
2018-12-22T07:18:16.470Z,23.43
2018-12-22T07:20:44.863Z,27.37
2018-12-22T07:23:13.362Z,30.53
2018-12-22T07:25:41.899Z,30.87
2018-12-22T07:28:10.447Z,27.60
2018-12-22T07:30:38.939Z,32.37
2018-12-22T07:33:07.368Z,28.13
2018-12-22T07:35:35.914Z,29.33
2018-12-22T07:38:04.404Z,27.33
2018-12-22T07:40:32.831Z,25.07
2018-12-22T07:43:01.232Z,23.97
2018-12-22T07:45:29.734Z,24.90
2018-12-22T07:47:58.159Z,28.87
2018-12-22T07:50:26.580Z,32.27
2018-12-22T07:52:55.077Z,42.53
2018-12-22T07:55:23.540Z,44.73
2018-12-22T07:57:52.007Z,49.13
2018-12-22T08:00:20.469Z,53.23
2018-12-22T08:02:49.097Z,49.03
2018-12-22T08:05:17.557Z,45.90
2018-12-22T08:07:46.152Z,35.80
2018-12-22T08:10:14.593Z,71.90
2018-12-22T08:12:42.988Z,50.33
2018-12-22T08:15:11.658Z,56.10
2018-12-22T08:17:40.110Z,56.50
2018-12-22T08:20:08.755Z,55.13
2018-12-22T08:22:37.266Z,65.67
2018-12-22T08:25:06.141Z,69.57
2018-12-22T08:27:34.607Z,71.97
2018-12-22T08:30:03.081Z,59.53
2018-12-22T08:32:31.532Z,49.97
2018-12-22T08:35:00.038Z,48.57
2018-12-22T08:37:28.597Z,50.77
2018-12-22T08:39:57.021Z,44.47
2018-12-22T08:42:25.559Z,40.90
2018-12-22T08:44:54.019Z,40.83
2018-12-22T08:47:22.465Z,41.77
2018-12-22T08:49:50.899Z,61.40
2018-12-22T08:52:19.482Z,95.13
2018-12-22T08:54:47.907Z,85.07
2018-12-22T08:57:16.446Z,78.13
2018-12-22T08:59:44.923Z,59.57
2018-12-22T09:02:13.469Z,43.47
2018-12-22T09:04:41.922Z,41.07
2018-12-22T09:07:10.431Z,34.00
2018-12-22T09:09:38.855Z,33.87
2018-12-22T09:12:07.408Z,35.37
2018-12-22T09:14:35.902Z,26.40
2018-12-22T09:17:04.506Z,21.33
2018-12-22T09:19:32.972Z,24.50
2018-12-22T09:22:01.468Z,18.90
2018-12-22T09:24:29.939Z,17.23
2018-12-22T09:26:58.344Z,23.03
2018-12-22T09:29:26.918Z,21.63
2018-12-22T09:31:55.358Z,22.63
2018-12-22T09:34:23.791Z,26.17
2018-12-22T09:36:52.279Z,15.00
2018-12-22T09:39:20.782Z,21.30
2018-12-22T09:41:49.231Z,18.00
2018-12-22T09:44:17.690Z,19.67
2018-12-22T09:46:46.129Z,17.10
2018-12-22T09:49:14.573Z,14.77
2018-12-22T09:51:43.154Z,16.23
2018-12-22T09:54:11.579Z,14.67
2018-12-22T09:56:40.031Z,15.20
2018-12-22T09:59:08.596Z,18.93
2018-12-22T10:01:37.034Z,22.17
2018-12-22T10:04:05.608Z,20.40
2018-12-22T10:06:34.126Z,21.53
2018-12-22T10:09:02.815Z,18.37
2018-12-22T10:11:31.238Z,22.93
2018-12-22T10:13:59.727Z,18.67
2018-12-22T10:16:28.132Z,19.53
2018-12-22T10:18:56.619Z,19.73
2018-12-22T10:21:25.116Z,19.73
2018-12-22T10:23:53.545Z,15.10
2018-12-22T10:26:22.047Z,16.27
2018-12-22T10:28:53.905Z,17.90
2018-12-22T10:31:22.332Z,16.37
2018-12-22T10:33:50.738Z,15.07
2018-12-22T10:36:19.599Z,19.93
2018-12-22T10:38:48.058Z,14.57
2018-12-22T10:41:16.530Z,16.23
2018-12-22T10:43:45.125Z,16.53
2018-12-22T10:46:13.552Z,18.87
2018-12-22T10:48:42.068Z,16.73
2018-12-22T10:51:10.615Z,22.83
2018-12-22T10:53:39.078Z,22.23
2018-12-22T10:56:07.564Z,21.33
2018-12-22T10:58:36.039Z,21.97
2018-12-22T11:01:04.454Z,24.90
2018-12-22T11:03:32.858Z,29.07
2018-12-22T11:06:01.453Z,25.90
2018-12-22T11:08:29.943Z,29.73
2018-12-22T11:10:58.440Z,25.50
2018-12-22T11:13:26.920Z,29.50
2018-12-22T11:15:55.401Z,68.03
2018-12-22T11:18:23.829Z,34.73
2018-12-22T11:20:52.391Z,33.40
2018-12-22T11:23:20.904Z,32.80
2018-12-22T11:25:49.547Z,30.83
2018-12-22T11:28:18.017Z,33.03
2018-12-22T11:30:46.628Z,27.40
2018-12-22T11:33:15.178Z,32.70
2018-12-22T11:35:43.772Z,28.60
2018-12-22T11:38:12.176Z,30.10
2018-12-22T11:40:40.599Z,28.10
2018-12-22T11:43:09.106Z,36.67
2018-12-22T11:45:37.541Z,33.73
2018-12-22T11:48:31.031Z,33.80
2018-12-22T11:50:59.652Z,36.60
2018-12-22T11:53:28.102Z,36.53
2018-12-22T11:55:56.711Z,34.13
2018-12-22T11:58:25.261Z,34.33
2018-12-22T12:00:53.793Z,49.73
2018-12-22T12:03:22.400Z,36.43
2018-12-22T12:05:50.807Z,43.40
2018-12-22T12:08:19.363Z,40.53
2018-12-22T12:10:47.830Z,40.03
2018-12-22T12:13:16.232Z,42.63
2018-12-22T12:15:49.579Z,36.13
2018-12-22T12:19:24.691Z,33.80
2018-12-22T12:21:53.273Z,31.30
2018-12-22T12:24:21.916Z,36.87
2018-12-22T12:26:50.507Z,35.17
2018-12-22T12:29:19.130Z,39.83
2018-12-22T12:31:52.082Z,35.07
2018-12-22T12:34:18.281Z,36.10
2018-12-22T12:36:46.759Z,33.93
2018-12-22T12:39:16.247Z,37.53
2018-12-22T12:41:45.315Z,37.97
2018-12-22T12:44:13.749Z,42.47
2018-12-22T12:46:44.292Z,35.90
2018-12-22T12:49:13.069Z,34.47
2018-12-22T12:51:41.521Z,37.23
2018-12-22T12:54:09.970Z,34.73
2018-12-22T12:56:42.123Z,37.07
2018-12-22T12:59:10.630Z,34.00
2018-12-22T13:01:39.050Z,33.50
2018-12-22T13:04:07.594Z,28.47
2018-12-22T13:06:39.594Z,30.17
2018-12-22T13:09:09.044Z,28.63
2018-12-22T13:11:37.580Z,36.53
2018-12-22T13:14:10.443Z,33.20
2018-12-22T13:16:38.863Z,33.47
2018-12-22T13:20:31.536Z,36.77
2018-12-22T13:23:00.006Z,40.80
2018-12-22T13:25:28.484Z,38.63
2018-12-22T13:27:57.070Z,35.53
2018-12-22T13:30:25.487Z,40.57
2018-12-22T13:32:54.277Z,39.27
2018-12-22T13:35:22.947Z,32.63
2018-12-22T13:37:51.371Z,32.07
2018-12-22T13:40:19.891Z,33.47
2018-12-22T13:42:48.367Z,31.90
2018-12-22T13:45:16.961Z,42.57
2018-12-22T13:47:45.740Z,34.73
2018-12-22T13:50:14.606Z,33.83
2018-12-22T13:52:43.710Z,43.70
2018-12-22T13:55:12.148Z,32.43
2018-12-22T13:57:40.751Z,37.73
2018-12-22T14:00:12.133Z,38.57
2018-12-22T14:02:41.405Z,36.53
2018-12-22T14:05:12.706Z,34.13
2018-12-22T14:07:41.151Z,35.97
2018-12-22T14:10:10.662Z,39.60
2018-12-22T14:12:39.387Z,37.63
2018-12-22T14:15:11.579Z,42.63
2018-12-22T14:17:54.435Z,34.97
2018-12-22T14:20:24.139Z,37.60
2018-12-22T14:22:53.194Z,37.03
2018-12-22T14:25:25.834Z,41.30
2018-12-22T14:27:54.271Z,42.43
2018-12-22T14:30:22.941Z,42.37
2018-12-22T14:32:51.512Z,37.03
2018-12-22T14:35:48.167Z,36.00
2018-12-22T14:38:16.640Z,44.37
2018-12-22T14:40:45.084Z,37.70
2018-12-22T14:43:13.656Z,48.23
2018-12-22T14:45:42.192Z,47.23
2018-12-22T14:48:10.599Z,37.20
2018-12-22T14:50:39.013Z,37.93
2018-12-22T14:53:07.484Z,40.93
2018-12-22T14:55:35.935Z,43.13
2018-12-22T14:58:14.240Z,49.27
2018-12-22T15:00:42.665Z,54.50
2018-12-22T15:03:11.060Z,54.20
2018-12-22T15:05:39.511Z,47.90
2018-12-22T15:08:08.036Z,51.03
2018-12-22T15:10:36.458Z,46.33
2018-12-22T15:13:05.141Z,54.57
2018-12-22T15:15:33.748Z,48.37
2018-12-22T15:18:02.204Z,38.50
2018-12-22T15:20:32.140Z,127.27
2018-12-22T15:23:02.316Z,159.87
2018-12-22T15:25:30.934Z,167.33
2018-12-22T15:27:59.585Z,88.30
2018-12-22T15:30:28.374Z,60.60
2018-12-22T15:32:56.827Z,147.17
2018-12-22T15:35:25.314Z,105.97
2018-12-22T15:37:53.829Z,120.03
2018-12-22T15:40:23.146Z,102.47
2018-12-22T15:42:51.634Z,69.23
2018-12-22T15:45:20.061Z,75.20
2018-12-22T15:47:48.690Z,85.37
2018-12-22T15:50:19.313Z,49.97
2018-12-22T15:52:47.743Z,51.53
2018-12-22T15:55:16.190Z,46.13
2018-12-22T15:57:44.670Z,55.07
2018-12-22T16:00:13.666Z,52.63
2018-12-22T16:02:42.157Z,56.23
2018-12-22T16:05:11.327Z,50.90
2018-12-22T16:07:40.174Z,58.13
2018-12-22T16:10:11.202Z,52.93
2018-12-22T16:12:39.691Z,65.07
2018-12-22T16:15:11.144Z,58.23
2018-12-22T16:17:39.578Z,51.17
2018-12-22T16:20:09.640Z,62.00
2018-12-22T16:22:38.238Z,60.10
2018-12-22T16:25:11.476Z,53.57
2018-12-22T16:27:38.419Z,61.83
2018-12-22T16:30:11.922Z,48.73
2018-12-22T16:32:41.461Z,57.53
2018-12-22T16:35:10.238Z,55.60
2018-12-22T16:37:38.694Z,76.23
2018-12-22T16:40:09.498Z,97.57
2018-12-22T16:42:37.960Z,92.53
2018-12-22T16:45:09.405Z,87.03
2018-12-22T16:47:37.942Z,79.67
2018-12-22T16:50:08.772Z,83.80
2018-12-22T16:52:38.875Z,101.73
2018-12-22T16:55:10.170Z,108.03
2018-12-22T16:57:40.663Z,113.50
2018-12-22T17:00:13.768Z,119.70
2018-12-22T17:02:53.476Z,149.43
2018-12-22T17:05:21.985Z,112.53
2018-12-22T17:07:50.435Z,91.63
2018-12-22T17:10:18.988Z,78.03
2018-12-22T17:12:47.457Z,75.17
2018-12-22T17:15:21.867Z,79.20
2018-12-22T17:17:46.370Z,70.27
2018-12-22T17:20:14.983Z,68.40
2018-12-22T17:24:04.355Z,89.23
2018-12-22T17:26:35.387Z,86.17
2018-12-22T17:29:03.899Z,89.00
2018-12-22T17:31:32.411Z,83.23
2018-12-22T17:34:00.860Z,83.93
2018-12-22T17:36:29.325Z,89.47
2018-12-22T17:38:57.784Z,91.87
2018-12-22T17:41:26.298Z,101.27
2018-12-22T17:43:54.971Z,94.63
2018-12-22T17:46:23.533Z,103.10
2018-12-22T17:48:52.275Z,89.70
2018-12-22T17:51:20.727Z,106.27
2018-12-22T17:53:49.145Z,103.43
2018-12-22T17:56:17.622Z,112.57
2018-12-22T17:58:46.044Z,109.10
2018-12-22T18:01:14.470Z,144.50
2018-12-22T18:03:42.967Z,162.10
2018-12-22T18:06:11.438Z,145.37
2018-12-22T18:08:39.967Z,154.83
2018-12-22T18:11:08.523Z,141.73
2018-12-22T18:13:36.986Z,128.17
2018-12-22T18:16:05.718Z,121.37
2018-12-22T18:18:34.216Z,124.17
2018-12-22T18:21:02.677Z,140.07
2018-12-22T18:23:31.094Z,117.93
2018-12-22T18:25:59.616Z,103.93
2018-12-22T18:28:28.047Z,96.43
2018-12-22T18:30:57.106Z,100.83
2018-12-22T18:33:25.680Z,94.03
2018-12-22T18:35:54.211Z,98.13
2018-12-22T18:38:22.765Z,85.67
2018-12-22T18:40:51.330Z,91.23
2018-12-22T18:43:19.871Z,77.33
2018-12-22T18:45:48.358Z,69.90
2018-12-22T18:48:16.818Z,78.33
2018-12-22T18:50:45.248Z,61.87
2018-12-22T18:53:13.679Z,66.97
2018-12-22T18:55:42.267Z,82.97
2018-12-22T18:58:12.049Z,80.97
2018-12-22T19:00:40.620Z,74.07
2018-12-22T19:03:09.133Z,77.63
2018-12-22T19:05:38.015Z,72.90
2018-12-22T19:08:10.282Z,70.43
2018-12-22T19:10:41.887Z,74.00
2018-12-22T19:13:10.460Z,78.80
2018-12-22T19:15:39.133Z,71.43
2018-12-22T19:18:07.631Z,76.27
2018-12-22T19:20:41.234Z,73.53
2018-12-22T19:23:11.023Z,69.67
2018-12-22T19:25:39.503Z,73.17
2018-12-22T19:28:08.008Z,69.70
2018-12-22T19:30:36.588Z,77.90
2018-12-22T19:33:05.048Z,97.90
2018-12-22T19:35:33.560Z,86.60
2018-12-22T19:38:02.096Z,97.73
2018-12-22T19:40:30.664Z,97.03
2018-12-22T19:42:59.414Z,95.27
2018-12-22T19:45:28.129Z,98.50
2018-12-22T19:47:56.962Z,86.73
2018-12-22T19:50:25.831Z,99.70
2018-12-22T19:52:54.715Z,91.43
2018-12-22T19:55:23.455Z,90.97
2018-12-22T19:57:52.278Z,93.80
2018-12-22T20:00:21.235Z,103.73
2018-12-22T20:02:50.243Z,102.07
2018-12-22T20:05:19.334Z,119.80
2018-12-22T20:07:48.361Z,128.37
2018-12-22T20:10:17.860Z,118.53
2018-12-22T20:12:47.189Z,138.87
2018-12-22T20:15:16.404Z,126.90
2018-12-22T20:17:45.579Z,114.70
2018-12-22T20:20:15.052Z,111.20
2018-12-22T20:22:44.079Z,91.83
2018-12-22T20:25:13.230Z,86.33
2018-12-22T20:27:42.382Z,85.13
2018-12-22T20:30:11.623Z,97.67
2018-12-22T20:32:40.650Z,129.87
2018-12-22T20:35:09.731Z,179.07
2018-12-22T20:37:38.708Z,155.27
2018-12-22T20:40:08.398Z,93.37
2018-12-22T20:42:37.511Z,75.83
2018-12-22T20:45:06.735Z,61.60
2018-12-22T20:47:35.463Z,59.13
2018-12-22T20:50:04.656Z,57.57
2018-12-22T20:52:33.105Z,57.43
2018-12-22T20:55:01.632Z,58.87
2018-12-22T20:57:30.136Z,53.90
2018-12-22T20:59:58.645Z,50.23
2018-12-22T21:02:27.195Z,45.93
2018-12-22T21:04:56.342Z,46.67
2018-12-22T21:07:24.953Z,50.23
2018-12-22T21:09:53.381Z,46.43
2018-12-22T21:12:21.872Z,49.47
2018-12-22T21:14:50.358Z,44.83
2018-12-22T22:01:00.973Z,42.80
2018-12-22T22:03:29.445Z,40.57
2018-12-22T22:05:57.987Z,48.20
2018-12-22T22:08:26.656Z,56.37
2018-12-22T22:10:55.169Z,62.40
2018-12-22T22:13:23.912Z,97.20
2018-12-22T22:15:52.512Z,60.90
2018-12-22T22:18:21.048Z,152.00
2018-12-22T22:20:49.696Z,213.90
2018-12-22T22:23:19.255Z,219.53
2018-12-22T22:25:48.106Z,174.60
2018-12-22T22:28:16.744Z,121.10
2018-12-22T22:30:45.328Z,80.27
2018-12-22T22:33:13.841Z,88.27
2018-12-22T22:35:42.527Z,67.47
2018-12-22T22:38:11.256Z,65.77
2018-12-22T22:40:39.878Z,64.70
2018-12-22T22:43:08.422Z,65.00
2018-12-22T22:45:37.031Z,76.77
2018-12-22T22:48:05.892Z,58.53
2018-12-22T22:50:34.584Z,69.13
2018-12-22T22:53:03.272Z,69.67
2018-12-22T22:55:31.804Z,82.93
2018-12-22T22:58:00.452Z,90.10
2018-12-22T23:00:36.070Z,85.40
2018-12-22T23:03:05.694Z,91.40
2018-12-22T23:05:34.328Z,103.43
2018-12-22T23:08:02.902Z,170.67
2018-12-22T23:10:31.398Z,96.20
2018-12-22T23:13:00.017Z,217.50
2018-12-22T23:15:28.598Z,201.97
2018-12-22T23:17:57.124Z,149.93
2018-12-22T23:20:25.644Z,183.97
2018-12-22T23:22:54.357Z,164.17
2018-12-22T23:25:22.978Z,90.23
2018-12-22T23:27:51.598Z,167.53
2018-12-22T23:30:20.128Z,45.13
2018-12-22T23:32:48.635Z,44.13
2018-12-22T23:35:17.164Z,44.63
2018-12-22T23:37:45.712Z,42.43
2018-12-22T23:40:14.436Z,38.27
2018-12-22T23:42:42.992Z,37.77
2018-12-22T23:45:11.706Z,50.57
2018-12-22T23:47:40.424Z,54.27
2018-12-22T23:50:09.177Z,52.30
2018-12-22T23:52:37.743Z,55.67
2018-12-22T23:55:06.294Z,56.67
2018-12-22T23:57:34.804Z,57.53
